createdAt,value
2018-04-17T00:00:35.586Z,15.12
2018-04-17T00:03:04.137Z,15.02
2018-04-17T00:05:33.369Z,14.94
2018-04-17T00:08:01.761Z,14.92
2018-04-17T00:10:30.114Z,14.96
2018-04-17T00:12:58.543Z,14.84
2018-04-17T00:15:26.970Z,14.66
2018-04-17T00:17:56.079Z,14.50
2018-04-17T00:20:24.459Z,14.48
2018-04-17T00:22:52.904Z,14.44
2018-04-17T00:25:21.309Z,14.52
2018-04-17T00:27:49.709Z,14.55
2018-04-17T00:30:19.694Z,14.61
2018-04-17T00:32:48.057Z,14.63
2018-04-17T00:35:16.456Z,14.63
2018-04-17T00:37:44.831Z,14.59
2018-04-17T00:40:14.055Z,14.59
2018-04-17T00:42:43.414Z,14.61
2018-04-17T00:45:12.639Z,14.65
2018-04-17T00:47:41.773Z,14.60
2018-04-17T00:50:10.133Z,14.65
2018-04-17T00:52:38.719Z,14.61
2018-04-17T00:55:07.089Z,14.55
2018-04-17T00:57:35.464Z,14.50
2018-04-17T01:00:03.836Z,14.46
2018-04-17T01:02:32.197Z,14.42
2018-04-17T01:05:01.342Z,14.44
2018-04-17T01:07:31.420Z,14.44
2018-04-17T01:10:00.552Z,14.38
2018-04-17T01:12:28.893Z,14.38
2018-04-17T01:14:57.307Z,14.34
2018-04-17T01:17:25.656Z,14.35
2018-04-17T01:19:54.794Z,14.29
2018-04-17T01:22:23.125Z,14.22
2018-04-17T01:24:53.121Z,14.18
2018-04-17T01:27:22.245Z,14.19
2018-04-17T01:29:50.621Z,14.21
2018-04-17T01:32:19.014Z,14.17
2018-04-17T01:34:48.158Z,14.14
2018-04-17T01:37:16.532Z,14.10
2018-04-17T01:39:44.912Z,14.05
2018-04-17T01:42:13.266Z,14.01
2018-04-17T01:44:42.243Z,13.91
2018-04-17T01:47:10.606Z,13.90
2018-04-17T01:49:38.949Z,13.89
2018-04-17T01:52:08.051Z,13.83
2018-04-17T01:54:37.787Z,13.75
2018-04-17T01:57:07.352Z,13.66
2018-04-17T01:59:35.710Z,13.61
2018-04-17T02:02:04.104Z,13.57
2018-04-17T02:04:33.355Z,13.54
2018-04-17T02:07:02.581Z,13.55
2018-04-17T02:09:30.959Z,13.50
2018-04-17T02:11:59.311Z,13.43
2018-04-17T02:14:27.894Z,13.45
2018-04-17T02:16:56.275Z,13.42
2018-04-17T02:19:26.303Z,13.37
2018-04-17T02:21:54.700Z,13.33
2018-04-17T02:24:23.076Z,13.29
2018-04-17T02:26:51.440Z,13.26
2018-04-17T02:29:19.930Z,13.25
2018-04-17T02:31:48.335Z,13.28
2018-04-17T02:34:16.695Z,13.28
2018-04-17T02:36:45.186Z,13.28
2018-04-17T02:39:13.517Z,13.18
2018-04-17T02:41:41.860Z,13.17
2018-04-17T02:44:10.227Z,13.07
2018-04-17T02:46:38.598Z,13.09
2018-04-17T02:49:07.837Z,13.02
2018-04-17T02:51:36.982Z,12.96
2018-04-17T02:54:05.346Z,12.92
2018-04-17T02:56:33.705Z,12.93
2018-04-17T02:59:02.047Z,12.91
2018-04-17T03:01:30.413Z,12.96
2018-04-17T03:03:58.783Z,12.99
2018-04-17T03:06:27.146Z,12.89
2018-04-17T03:08:55.560Z,12.62
2018-04-17T03:11:23.939Z,12.55
2018-04-17T03:13:52.279Z,12.60
2018-04-17T03:16:20.709Z,12.59
2018-04-17T03:18:49.910Z,12.64
2018-04-17T03:21:19.740Z,12.65
2018-04-17T03:23:48.110Z,12.62
2018-04-17T03:26:17.305Z,12.64
2018-04-17T03:28:46.464Z,12.65
2018-04-17T03:31:14.894Z,12.64
2018-04-17T03:33:44.035Z,12.60
2018-04-17T03:36:12.402Z,12.66
2018-04-17T03:38:40.785Z,12.67
2018-04-17T03:41:09.140Z,12.64
2018-04-17T03:43:38.214Z,12.61
2018-04-17T03:46:07.357Z,12.60
2018-04-17T03:48:35.823Z,12.55
2018-04-17T03:51:04.232Z,12.55
2018-04-17T03:53:33.373Z,12.53
2018-04-17T03:56:09.379Z,12.50
2018-04-17T03:58:37.813Z,12.49
2018-04-17T04:01:07.737Z,12.47
2018-04-17T04:03:37.644Z,12.49
2018-04-17T04:06:07.662Z,12.45
2018-04-17T04:08:36.819Z,12.45
2018-04-17T04:11:05.234Z,12.42
2018-04-17T04:13:33.616Z,12.40
2018-04-17T04:16:03.281Z,12.38
2018-04-17T04:18:49.517Z,12.35
2018-04-17T04:21:36.473Z,12.36
2018-04-17T04:27:34.398Z,12.32
2018-04-17T04:30:02.803Z,12.26
2018-04-17T04:32:31.905Z,12.25
2018-04-17T04:35:02.897Z,12.26
2018-04-17T04:37:32.685Z,12.22
2018-04-17T04:40:01.766Z,12.19
2018-04-17T04:42:30.120Z,12.19
2018-04-17T04:44:59.207Z,12.22
2018-04-17T04:47:27.597Z,12.21
2018-04-17T04:49:56.728Z,12.22
2018-04-17T04:52:25.938Z,12.25
2018-04-17T04:54:54.288Z,12.28
2018-04-17T04:57:22.661Z,12.28
2018-04-17T04:59:51.567Z,12.31
2018-04-17T05:02:19.936Z,12.35
2018-04-17T05:04:48.323Z,12.40
2018-04-17T05:07:17.404Z,12.45
2018-04-17T05:09:46.533Z,12.47
2018-04-17T05:12:14.865Z,12.51
2018-04-17T05:14:44.288Z,12.59
2018-04-17T05:17:13.525Z,12.70
2018-04-17T05:19:41.924Z,12.86
2018-04-17T05:22:10.323Z,12.92
2018-04-17T05:24:40.976Z,12.91
2018-04-17T05:27:09.319Z,12.92
2018-04-17T05:29:38.165Z,12.94
2018-04-17T05:32:07.143Z,12.98
2018-04-17T05:34:35.549Z,12.97
2018-04-17T05:37:04.012Z,13.02
2018-04-17T05:39:33.305Z,13.10
2018-04-17T05:42:01.720Z,13.17
2018-04-17T05:44:31.473Z,13.25
2018-04-17T05:47:01.124Z,13.25
2018-04-17T05:49:30.020Z,13.19
2018-04-17T05:51:58.425Z,13.27
2018-04-17T05:54:26.779Z,13.32
2018-04-17T05:56:55.146Z,13.40
2018-04-17T05:59:23.480Z,13.45
2018-04-17T06:01:52.784Z,13.50
2018-04-17T06:04:21.884Z,13.57
2018-04-17T06:06:51.118Z,13.56
2018-04-17T06:09:19.486Z,13.41
2018-04-17T06:11:47.839Z,13.27
2018-04-17T06:14:16.995Z,13.22
2018-04-17T06:16:45.413Z,13.21
2018-04-17T06:19:14.542Z,13.36
2018-04-17T06:21:42.922Z,13.38
2018-04-17T06:24:12.195Z,13.53
2018-04-17T06:26:41.318Z,13.68
2018-04-17T06:29:09.693Z,13.79
2018-04-17T06:31:38.122Z,13.96
2018-04-17T06:34:06.505Z,14.13
2018-04-17T06:36:35.767Z,14.08
2018-04-17T06:39:04.145Z,14.15
2018-04-17T06:41:32.548Z,14.19
2018-04-17T06:44:00.917Z,14.18
2018-04-17T06:46:29.290Z,14.22
2018-04-17T06:48:57.637Z,14.24
2018-04-17T06:51:26.067Z,14.33
2018-04-17T06:53:54.438Z,14.48
2018-04-17T06:56:22.817Z,14.57
2018-04-17T06:58:52.986Z,14.65
2018-04-17T07:01:21.375Z,14.73
2018-04-17T07:03:49.748Z,14.86
2018-04-17T07:06:18.119Z,14.90
2018-04-17T07:08:49.705Z,14.85
2018-04-17T07:11:18.413Z,14.85
2018-04-17T07:13:46.758Z,14.84
2018-04-17T07:16:15.670Z,14.81
2018-04-17T07:18:44.973Z,14.81
2018-04-17T07:21:13.716Z,14.90
2018-04-17T07:23:43.632Z,14.88
2018-04-17T07:26:13.452Z,14.97
2018-04-17T07:28:41.857Z,14.94
2018-04-17T07:31:10.231Z,15.06
2018-04-17T07:33:38.610Z,15.20
2018-04-17T07:36:06.940Z,15.28
2018-04-17T07:38:36.141Z,15.39
2018-04-17T07:41:05.261Z,15.45
2018-04-17T07:43:33.637Z,15.52
2018-04-17T07:46:03.378Z,15.68
2018-04-17T07:48:47.199Z,15.69
2018-04-17T07:51:15.591Z,15.60
2018-04-17T07:53:43.976Z,15.62
2018-04-17T07:56:12.361Z,15.63
2018-04-17T07:58:42.033Z,15.70
2018-04-17T08:01:10.470Z,15.75
2018-04-17T08:03:38.824Z,15.82
2018-04-17T08:06:07.194Z,15.89
2018-04-17T08:08:35.625Z,15.93
2018-04-17T08:11:04.797Z,15.95
2018-04-17T08:13:33.999Z,16.00
2018-04-17T08:16:02.372Z,16.04
2018-04-17T08:18:30.763Z,16.01
2018-04-17T08:20:59.135Z,16.06
2018-04-17T08:23:27.522Z,16.03
2018-04-17T08:25:55.920Z,16.11
2018-04-17T08:28:25.040Z,16.14
2018-04-17T08:30:53.703Z,16.20
2018-04-17T08:33:22.847Z,16.28
2018-04-17T08:35:51.222Z,16.33
2018-04-17T08:38:19.630Z,16.38
2018-04-17T08:40:48.067Z,16.36
2018-04-17T08:43:16.440Z,16.44
2018-04-17T08:45:44.817Z,16.49
2018-04-17T08:48:13.202Z,16.59
2018-04-17T08:50:41.608Z,16.61
2018-04-17T08:53:09.992Z,16.64
2018-04-17T08:55:38.350Z,16.73
2018-04-17T08:58:07.654Z,16.80
2018-04-17T09:00:36.064Z,16.81
2018-04-17T09:03:04.441Z,16.75
2018-04-17T09:05:32.821Z,16.76
2018-04-17T09:08:01.806Z,16.78
2018-04-17T09:10:31.090Z,16.89
2018-04-17T09:12:59.584Z,17.02
2018-04-17T09:15:27.919Z,17.07
2018-04-17T09:17:56.308Z,17.12
2018-04-17T09:20:24.657Z,17.20
2018-04-17T09:22:53.793Z,17.29
2018-04-17T09:25:23.069Z,17.37
2018-04-17T09:27:53.004Z,17.41
2018-04-17T09:30:22.127Z,17.49
2018-04-17T09:32:50.628Z,17.60
2018-04-17T09:35:18.990Z,17.73
2018-04-17T09:37:48.268Z,17.83
2018-04-17T09:40:18.726Z,17.89
2018-04-17T09:42:47.978Z,17.95
2018-04-17T09:45:17.939Z,18.01
2018-04-17T09:47:47.035Z,18.05
2018-04-17T09:50:15.449Z,18.04
2018-04-17T09:52:44.581Z,18.00
2018-04-17T09:55:12.951Z,17.97
2018-04-17T09:57:42.294Z,17.95
2018-04-17T10:00:10.643Z,17.97
2018-04-17T10:02:39.045Z,18.01
2018-04-17T10:05:07.401Z,17.98
2018-04-17T10:07:35.777Z,18.18
2018-04-17T10:10:04.147Z,18.33
2018-04-17T10:12:32.694Z,18.54
2018-04-17T10:15:01.822Z,18.66
2018-04-17T10:17:30.949Z,18.74
2018-04-17T10:19:59.295Z,18.93
2018-04-17T10:22:27.702Z,19.10
2018-04-17T10:24:56.102Z,19.13
2018-04-17T10:27:26.491Z,18.98
2018-04-17T10:29:54.885Z,18.74
2018-04-17T10:32:23.300Z,18.56
2018-04-17T10:34:51.676Z,18.41
2018-04-17T10:37:20.007Z,18.42
2018-04-17T10:39:48.436Z,18.51
2018-04-17T10:42:17.592Z,18.67
2018-04-17T10:44:46.015Z,18.84
2018-04-17T10:47:14.380Z,19.03
2018-04-17T10:49:43.924Z,19.10
2018-04-17T10:52:13.005Z,19.24
2018-04-17T10:54:42.943Z,19.27
2018-04-17T10:57:11.288Z,19.22
2018-04-17T10:59:39.658Z,19.27
2018-04-17T11:02:08.956Z,19.32
2018-04-17T11:04:37.321Z,19.40
2018-04-17T11:07:05.673Z,19.53
2018-04-17T11:09:34.069Z,19.68
2018-04-17T11:12:02.441Z,19.78
2018-04-17T11:14:31.673Z,19.80
2018-04-17T11:17:00.092Z,19.88
2018-04-17T11:19:28.462Z,19.97
2018-04-17T11:21:58.411Z,19.97
2018-04-17T11:24:26.775Z,20.00
2018-04-17T11:26:55.688Z,20.07
2018-04-17T11:29:24.063Z,20.13
2018-04-17T11:31:53.286Z,20.19
2018-04-17T11:34:21.675Z,20.22
2018-04-17T11:36:50.871Z,20.34
2018-04-17T11:39:20.978Z,20.50
2018-04-17T11:41:49.323Z,20.58
2018-04-17T11:44:18.373Z,20.70
2018-04-17T11:46:46.794Z,20.69
2018-04-17T11:49:15.181Z,20.72
2018-04-17T11:51:43.555Z,20.79
2018-04-17T11:54:11.918Z,20.91
2018-04-17T11:56:41.183Z,21.03
2018-04-17T11:59:10.297Z,21.03
2018-04-17T12:01:39.402Z,20.96
2018-04-17T12:04:07.874Z,20.83
2018-04-17T12:06:36.252Z,20.96
2018-04-17T12:09:06.904Z,21.02
2018-04-17T12:11:35.333Z,21.08
2018-04-17T12:14:06.480Z,20.87
2018-04-17T12:16:37.114Z,20.96
2018-04-17T12:19:06.445Z,21.00
2018-04-17T12:21:38.559Z,21.01
2018-04-17T12:24:07.794Z,21.02
2018-04-17T12:26:37.165Z,20.98
2018-04-17T12:29:05.559Z,21.02
2018-04-17T12:31:33.927Z,21.19
2018-04-17T12:34:02.906Z,21.34
2018-04-17T12:36:31.300Z,21.31
2018-04-17T12:38:59.670Z,21.24
2018-04-17T12:41:28.040Z,21.35
2018-04-17T12:43:57.124Z,21.52
2018-04-17T12:46:26.471Z,21.65
2018-04-17T12:48:54.831Z,21.81
2018-04-17T12:51:23.202Z,21.69
2018-04-17T12:53:51.582Z,21.90
2018-04-17T12:56:20.307Z,22.11
2018-04-17T12:58:49.480Z,22.11
2018-04-17T13:01:17.891Z,22.26
2018-04-17T13:03:47.029Z,22.37
2018-04-17T13:06:16.300Z,22.43
2018-04-17T13:08:45.575Z,22.53
2018-04-17T13:11:15.245Z,22.43
2018-04-17T13:13:46.604Z,22.47
2018-04-17T13:16:15.218Z,22.77
2018-04-17T13:18:44.459Z,22.88
2018-04-17T13:21:13.575Z,22.98
2018-04-17T13:23:44.221Z,22.83
2018-04-17T13:26:14.556Z,22.83
2018-04-17T13:28:48.444Z,22.89
2018-04-17T13:31:16.813Z,23.02
2018-04-17T13:33:49.654Z,23.00
2018-04-17T13:36:19.745Z,23.20
2018-04-17T13:38:50.486Z,23.40
2018-04-17T13:41:20.933Z,23.46
2018-04-17T13:43:52.405Z,23.45
2018-04-17T13:46:22.446Z,23.67
2018-04-17T13:48:50.825Z,23.90
2018-04-17T13:51:21.593Z,24.01
2018-04-17T13:53:51.928Z,24.19
2018-04-17T13:56:21.937Z,24.31
2018-04-17T13:58:51.845Z,24.43
2018-04-17T14:01:22.384Z,24.39
2018-04-17T14:03:50.780Z,24.17
2018-04-17T14:06:20.950Z,24.25
2018-04-17T14:08:51.586Z,24.27
2018-04-17T14:11:20.747Z,24.36
2018-04-17T14:13:50.678Z,24.35
2018-04-17T14:16:19.039Z,24.50
2018-04-17T14:18:49.007Z,24.65
2018-04-17T14:21:18.883Z,24.72
2018-04-17T14:23:48.005Z,24.84
2018-04-17T14:26:17.491Z,24.80
2018-04-17T14:28:45.890Z,24.95
2018-04-17T14:31:14.295Z,25.07
2018-04-17T14:33:43.491Z,25.10
2018-04-17T14:36:14.340Z,25.14
2018-04-17T14:38:43.910Z,25.06
2018-04-17T14:41:12.755Z,24.79
2018-04-17T14:43:41.821Z,24.52
2018-04-17T14:46:12.238Z,24.06
2018-04-17T14:48:43.782Z,24.06
2018-04-17T14:51:13.041Z,24.09
2018-04-17T14:53:47.509Z,23.83
2018-04-17T14:56:16.542Z,23.82
2018-04-17T14:58:45.852Z,23.61
2018-04-17T15:01:16.374Z,23.66
2018-04-17T15:03:46.843Z,23.57
2018-04-17T15:06:18.005Z,23.90
2018-04-17T15:08:47.700Z,24.23
2018-04-17T15:11:16.631Z,24.40
2018-04-17T15:13:46.984Z,24.36
2018-04-17T15:16:15.686Z,24.43
2018-04-17T15:18:44.686Z,24.39
2018-04-17T15:21:13.978Z,24.50
2018-04-17T15:23:44.007Z,24.48
2018-04-17T15:26:13.328Z,23.95
2018-04-17T15:28:44.425Z,24.14
2018-04-17T15:31:14.392Z,24.33
2018-04-17T15:33:44.509Z,24.53
2018-04-17T15:36:13.783Z,24.72
2018-04-17T15:38:43.542Z,24.82
2018-04-17T15:41:13.556Z,24.96
2018-04-17T15:43:45.969Z,24.79
2018-04-17T15:46:16.847Z,24.53
2018-04-17T15:48:45.309Z,24.65
2018-04-17T15:51:29.354Z,24.66
2018-04-17T15:55:41.105Z,24.42
2018-04-17T15:58:11.201Z,24.46
2018-04-17T16:00:39.731Z,24.74
2018-04-17T16:03:08.138Z,25.14
2018-04-17T16:05:37.930Z,25.33
2018-04-17T16:08:07.473Z,25.29
2018-04-17T16:10:36.717Z,25.01
2018-04-17T16:13:05.182Z,24.65
2018-04-17T16:15:35.402Z,24.47
2018-04-17T16:18:04.877Z,23.94
2018-04-17T16:20:33.792Z,23.78
2018-04-17T16:23:03.405Z,23.65
2018-04-17T16:25:32.712Z,23.67
2018-04-17T16:28:02.006Z,23.54
2018-04-17T16:30:31.277Z,23.33
2018-04-17T16:33:00.002Z,23.16
2018-04-17T16:35:29.241Z,23.02
2018-04-17T16:37:58.381Z,22.80
2018-04-17T16:40:27.641Z,22.76
2018-04-17T16:42:56.055Z,22.64
2018-04-17T16:45:24.563Z,22.53
2018-04-17T16:47:53.045Z,22.52
2018-04-17T16:50:21.472Z,22.46
2018-04-17T16:52:49.954Z,22.23
2018-04-17T16:55:18.346Z,22.18
2018-04-17T16:57:48.343Z,22.14
2018-04-17T17:00:16.725Z,22.10
2018-04-17T17:02:45.161Z,21.97
2018-04-17T17:05:13.563Z,21.80
2018-04-17T17:07:43.516Z,21.67
2018-04-17T17:10:11.930Z,21.61
2018-04-17T17:12:41.059Z,21.55
2018-04-17T17:15:09.550Z,21.47
2018-04-17T17:17:37.974Z,21.38
2018-04-17T17:20:07.283Z,21.32
2018-04-17T17:22:36.408Z,21.28
2018-04-17T17:25:04.904Z,21.30
2018-04-17T17:27:33.315Z,21.29
2018-04-17T17:30:02.513Z,21.32
2018-04-17T17:32:31.327Z,21.33
2018-04-17T17:35:01.264Z,21.33
2018-04-17T17:37:29.627Z,21.28
2018-04-17T17:39:58.763Z,21.27
2018-04-17T17:42:27.139Z,21.25
2018-04-17T17:44:55.626Z,21.22
2018-04-17T17:47:24.050Z,21.20
2018-04-17T17:49:52.411Z,21.17
2018-04-17T17:52:21.216Z,21.09
2018-04-17T17:54:50.381Z,21.06
2018-04-17T17:57:18.757Z,20.96
2018-04-17T17:59:47.238Z,20.84
2018-04-17T18:02:15.677Z,20.78
2018-04-17T18:04:44.763Z,20.70
2018-04-17T18:07:13.182Z,20.64
2018-04-17T18:09:41.647Z,20.58
2018-04-17T18:12:10.973Z,20.51
2018-04-17T18:14:41.051Z,20.44
2018-04-17T18:17:10.164Z,20.37
2018-04-17T18:19:39.000Z,20.32
2018-04-17T18:22:07.603Z,20.24
2018-04-17T18:24:36.805Z,20.19
2018-04-17T18:27:05.973Z,20.19
2018-04-17T18:29:34.336Z,20.21
2018-04-17T18:32:03.199Z,20.22
2018-04-17T18:34:31.580Z,20.22
2018-04-17T18:37:00.528Z,20.18
2018-04-17T18:39:28.990Z,20.20
2018-04-17T18:41:57.498Z,20.18
2018-04-17T18:44:26.647Z,20.14
2018-04-17T18:46:55.079Z,20.12
2018-04-17T18:49:24.418Z,20.07
2018-04-17T18:51:52.794Z,20.04
2018-04-17T18:54:21.135Z,20.01
2018-04-17T18:56:50.323Z,19.97
2018-04-17T18:59:18.744Z,19.91
2018-04-17T19:01:47.262Z,19.77
2018-04-17T19:04:16.439Z,19.70
2018-04-17T19:06:44.879Z,19.69
2018-04-17T19:09:26.040Z,19.69
2018-04-17T19:11:54.477Z,19.65
2018-04-17T19:14:22.953Z,19.63
2018-04-17T19:16:52.184Z,19.58
2018-04-17T19:19:20.654Z,19.57
2018-04-17T19:21:49.033Z,19.51
2018-04-17T19:24:17.419Z,19.46
2018-04-17T19:26:45.855Z,19.45
2018-04-17T19:29:14.248Z,19.40
2018-04-17T19:31:42.654Z,19.38
2018-04-17T19:34:10.974Z,19.33
2018-04-17T19:37:00.330Z,19.31
2018-04-17T19:39:29.483Z,19.23
2018-04-17T19:41:57.908Z,19.12
2018-04-17T19:44:27.085Z,19.11
2018-04-17T19:46:55.451Z,19.10
2018-04-17T19:49:23.838Z,19.08
2018-04-17T19:51:52.286Z,19.04
2018-04-17T19:54:20.664Z,19.01
2018-04-17T19:56:49.025Z,18.97
2018-04-17T19:59:17.461Z,18.92
2018-04-17T20:01:47.919Z,18.86
2018-04-17T20:04:17.078Z,18.79
2018-04-17T20:06:45.493Z,18.70
2018-04-17T20:09:14.658Z,18.67
2018-04-17T20:11:43.739Z,18.63
2018-04-17T20:14:12.142Z,18.58
2018-04-17T20:16:40.527Z,18.54
2018-04-17T20:19:08.962Z,18.48
2018-04-17T20:21:37.346Z,18.43
2018-04-17T20:24:05.793Z,18.38
2018-04-17T20:26:34.241Z,18.33
2018-04-17T20:29:02.660Z,18.28
2018-04-17T20:31:31.134Z,18.23
2018-04-17T20:33:59.517Z,18.18
2018-04-17T20:36:27.893Z,18.10
2018-04-17T20:38:56.272Z,18.05
2018-04-17T20:41:24.788Z,18.00
2018-04-17T20:43:53.198Z,17.92
2018-04-17T20:46:22.326Z,17.92
2018-04-17T20:48:51.518Z,17.86
2018-04-17T20:51:20.728Z,17.80
2018-04-17T20:53:49.096Z,17.79
2018-04-17T20:56:18.289Z,17.80
2018-04-17T20:58:48.685Z,17.75
2018-04-17T21:01:17.060Z,17.72
2018-04-17T21:03:45.931Z,17.70
2018-04-17T21:06:14.358Z,17.64
2018-04-17T21:08:43.658Z,17.62
2018-04-17T21:11:12.105Z,17.60
2018-04-17T21:13:40.485Z,17.52
2018-04-17T21:16:08.872Z,17.49
2018-04-17T21:18:37.783Z,17.45
2018-04-17T21:21:06.537Z,17.39
2018-04-17T21:23:35.489Z,17.36
2018-04-17T21:26:03.921Z,17.32
2018-04-17T21:28:32.347Z,17.28
2018-04-17T21:31:00.851Z,17.25
2018-04-17T21:33:29.241Z,17.18
2018-04-17T21:35:58.329Z,17.16
2018-04-17T21:38:27.473Z,17.14
2018-04-17T21:40:55.841Z,17.09
2018-04-17T21:43:24.371Z,17.07
2018-04-17T21:45:52.723Z,17.04
2018-04-17T21:48:21.973Z,16.98
2018-04-17T21:50:50.800Z,16.95
2018-04-17T21:53:19.234Z,16.92
2018-04-17T21:55:47.613Z,16.85
2018-04-17T21:58:16.020Z,16.85
2018-04-17T22:00:44.441Z,16.84
2018-04-17T22:03:14.093Z,16.79
2018-04-17T22:05:42.454Z,16.77
2018-04-17T22:08:10.860Z,16.72
2018-04-17T22:10:39.240Z,16.68
2018-04-17T22:13:07.587Z,16.66
2018-04-17T22:15:36.070Z,16.62
2018-04-17T22:18:05.933Z,16.61
2018-04-17T22:20:34.297Z,16.60
2018-04-17T22:23:03.512Z,16.57
2018-04-17T22:25:31.894Z,16.55
2018-04-17T22:28:00.270Z,16.50
2018-04-17T22:30:29.325Z,16.49
2018-04-17T22:32:58.025Z,16.45
2018-04-17T22:35:26.442Z,16.44
2018-04-17T22:37:56.345Z,16.42
2018-04-17T22:40:28.173Z,16.41
2018-04-17T22:42:56.792Z,16.35
2018-04-17T22:45:25.743Z,16.34
2018-04-17T22:47:55.731Z,16.28
2018-04-17T22:50:25.930Z,16.27
2018-04-17T22:52:54.312Z,16.26
2018-04-17T22:55:24.171Z,16.25
2018-04-17T22:57:52.713Z,16.20
2018-04-17T23:00:21.868Z,16.18
2018-04-17T23:02:50.283Z,16.17
2018-04-17T23:05:18.828Z,16.15
2018-04-17T23:07:47.178Z,16.15
2018-04-17T23:10:15.537Z,16.15
2018-04-17T23:12:46.556Z,16.11
2018-04-17T23:15:17.001Z,16.07
2018-04-17T23:17:46.169Z,16.04
2018-04-17T23:20:14.530Z,16.04
2018-04-17T23:22:42.893Z,16.02
2018-04-17T23:25:11.878Z,16.04
2018-04-17T23:27:40.503Z,15.98
2018-04-17T23:30:09.561Z,15.92
2018-04-17T23:32:38.432Z,15.90
2018-04-17T23:35:07.570Z,15.86
2018-04-17T23:37:35.982Z,15.83
2018-04-17T23:40:05.164Z,15.81
2018-04-17T23:42:35.437Z,15.78
2018-04-17T23:45:03.867Z,15.72
2018-04-17T23:47:33.124Z,15.66
2018-04-17T23:50:01.955Z,15.65
2018-04-17T23:52:30.344Z,15.60
2018-04-17T23:54:59.502Z,15.62
2018-04-17T23:57:28.225Z,15.61
2018-04-17T23:59:57.246Z,15.59
